Time;durP1;ratioP1;P1;durP2;ratioP2;P2;SDS_P1;SDS_P2;PMS_P1;PMS_P2;Temp;Humidity;BMP_temperature;BMP_pressure;BME280_temperature;BME280_humidity;BME280_pressure;Samples;Min_cycle;Max_cycle;Signal;HPM_P1;HPM_P2
2022/01/10 00:00:54;;;;;;;14.23;5.35;;;5.20;99.90;;;;;;5106224;28;20211;-82
2022/01/10 00:03:23;;;;;;;14.20;7.85;;;5.10;99.90;;;;;;5105467;28;20194;-81
2022/01/10 00:05:50;;;;;;;13.68;4.90;;;5.10;99.90;;;;;;5098110;28;20220;-82
2022/01/10 00:08:17;;;;;;;24.88;5.90;;;5.20;99.90;;;;;;5108255;28;20213;-85
2022/01/10 00:10:46;;;;;;;12.93;4.63;;;5.20;99.90;;;;;;5107958;28;20902;-82
2022/01/10 00:13:14;;;;;;;11.20;5.55;;;5.20;99.90;;;;;;5106315;28;20190;-84
2022/01/10 00:15:41;;;;;;;16.80;6.38;;;5.20;99.90;;;;;;5107902;28;20211;-84
2022/01/10 00:18:08;;;;;;;17.70;5.78;;;5.20;99.90;;;;;;5099879;28;20187;-82
2022/01/10 00:20:35;;;;;;;14.60;5.20;;;5.20;99.90;;;;;;5108043;28;20267;-81
2022/01/10 00:23:02;;;;;;;16.33;5.50;;;5.20;99.90;;;;;;5096142;28;20421;-80
2022/01/10 00:25:29;;;;;;;15.18;6.47;;;5.20;99.90;;;;;;5106771;28;20193;-81
2022/01/10 00:27:59;;;;;;;20.88;5.05;;;5.10;99.90;;;;;;5108484;28;20193;-83
2022/01/10 00:30:26;;;;;;;15.20;5.10;;;5.20;99.90;;;;;;5108526;28;20182;-84
2022/01/10 00:32:53;;;;;;;10.63;4.63;;;5.20;99.90;;;;;;5109985;28;20210;-81
2022/01/10 00:35:20;;;;;;;18.25;5.07;;;5.20;99.90;;;;;;5111368;28;20190;-79
2022/01/10 00:37:48;;;;;;;16.75;5.35;;;5.20;99.90;;;;;;5112166;28;20218;-83
2022/01/10 00:40:17;;;;;;;16.95;5.97;;;5.10;99.90;;;;;;5113736;28;20230;-81
2022/01/10 00:42:54;;;;;;;18.65;5.97;;;5.10;99.90;;;;;;5115834;28;20258;-80
2022/01/10 00:45:26;;;;;;;24.00;5.05;;;5.10;99.90;;;;;;5117289;28;20254;-79
2022/01/10 00:48:01;;;;;;;16.08;6.43;;;5.10;99.90;;;;;;5115700;28;20175;-81
2022/01/10 00:50:30;;;;;;;12.38;6.20;;;5.10;99.90;;;;;;5120239;28;20197;-81
2022/01/10 00:52:58;;;;;;;19.23;8.00;;;5.10;99.90;;;;;;5128838;28;20178;-82
2022/01/10 00:55:25;;;;;;;13.80;5.07;;;5.10;99.90;;;;;;5127873;28;20240;-80
2022/01/10 00:57:52;;;;;;;20.17;4.65;;;5.20;99.90;;;;;;5127422;28;20366;-81
2022/01/10 01:00:20;;;;;;;12.15;5.25;;;5.20;99.90;;;;;;5115584;28;20253;-79
2022/01/10 01:02:50;;;;;;;18.55;7.13;;;5.20;99.90;;;;;;5107950;28;20242;-82
2022/01/10 01:05:21;;;;;;;14.70;5.25;;;5.30;99.90;;;;;;5117161;28;20388;-81
2022/01/10 01:07:48;;;;;;;22.65;5.03;;;5.30;99.90;;;;;;5119511;28;20381;-80
2022/01/10 01:10:50;;;;;;;12.35;5.75;;;5.30;99.90;;;;;;5119082;28;20439;-82
2022/01/10 01:13:27;;;;;;;13.75;4.55;;;5.30;99.90;;;;;;5105772;28;20448;-80
2022/01/10 01:16:10;;;;;;;7.60;5.22;;;5.30;99.90;;;;;;5090538;28;20186;-82
2022/01/10 01:24:08;;;;;;;10.68;5.63;;;5.30;99.90;;;;;;5107269;28;20351;-79
2022/01/10 01:26:37;;;;;;;17.30;5.63;;;5.30;99.90;;;;;;5106816;28;20210;-83
2022/01/10 01:29:05;;;;;;;13.95;6.03;;;5.30;99.90;;;;;;5106983;28;20408;-80
2022/01/10 01:31:32;;;;;;;14.73;5.82;;;5.30;99.90;;;;;;5106145;28;20209;-79
2022/01/10 01:34:01;;;;;;;15.32;5.63;;;5.20;99.90;;;;;;5104097;28;20284;-79
2022/01/10 01:36:30;;;;;;;7.78;4.30;;;5.20;99.90;;;;;;5106091;28;20237;-82
2022/01/10 01:38:57;;;;;;;16.30;6.00;;;5.20;99.90;;;;;;5101581;28;20190;-82
2022/01/10 01:41:35;;;;;;;22.17;6.45;;;5.20;99.90;;;;;;5105672;28;20457;-82
2022/01/10 01:44:04;;;;;;;17.70;6.20;;;5.20;99.90;;;;;;5101805;28;20186;-80
2022/01/10 01:46:34;;;;;;;15.88;5.70;;;5.30;99.90;;;;;;5104321;28;20356;-81
2022/01/10 01:49:05;;;;;;;9.52;5.80;;;5.20;99.90;;;;;;5105905;28;20269;-81
2022/01/10 01:51:32;;;;;;;13.98;6.32;;;5.10;99.90;;;;;;5096143;28;20278;-80
2022/01/10 01:53:59;;;;;;;21.90;6.43;;;5.20;99.90;;;;;;5105035;28;20191;-81
2022/01/10 01:56:26;;;;;;;15.13;6.35;;;5.20;99.90;;;;;;5106384;28;20229;-79
2022/01/10 01:58:55;;;;;;;18.58;6.47;;;5.20;99.90;;;;;;5099807;28;20194;-82
2022/01/10 02:01:23;;;;;;;17.40;5.60;;;5.20;99.90;;;;;;5093049;28;20315;-81
2022/01/10 02:03:50;;;;;;;21.67;6.45;;;5.20;99.90;;;;;;5101406;28;20191;-82
2022/01/10 02:06:19;;;;;;;17.67;6.60;;;5.20;99.90;;;;;;5102021;28;20206;-83
2022/01/10 02:08:46;;;;;;;17.90;7.65;;;5.20;99.90;;;;;;5100144;28;20390;-80
2022/01/10 02:11:16;;;;;;;18.15;7.38;;;5.20;99.90;;;;;;5104929;28;20233;-80
2022/01/10 02:13:44;;;;;;;17.27;6.97;;;5.30;99.90;;;;;;5090502;28;20226;-82
2022/01/10 02:16:17;;;;;;;19.58;7.90;;;5.30;99.90;;;;;;5094141;28;20197;-83
2022/01/10 02:18:44;;;;;;;14.80;5.53;;;5.30;99.90;;;;;;5098978;28;20197;-79
2022/01/10 02:21:14;;;;;;;18.58;6.65;;;5.30;99.90;;;;;;5106955;28;20360;-82
2022/01/10 02:23:42;;;;;;;20.67;5.72;;;5.30;99.90;;;;;;5114867;28;20207;-79
2022/01/10 02:26:09;;;;;;;19.17;7.47;;;5.30;99.90;;;;;;5114518;28;20189;-79
2022/01/10 02:28:37;;;;;;;16.40;6.45;;;5.40;99.90;;;;;;5119639;28;20170;-79
2022/01/10 02:31:03;;;;;;;13.85;4.78;;;5.30;99.90;;;;;;5116045;28;20238;-82
2022/01/10 02:33:32;;;;;;;11.68;5.65;;;5.30;99.90;;;;;;5108392;28;20194;-81
2022/01/10 02:36:09;;;;;;;21.45;7.53;;;5.30;99.90;;;;;;5103813;28;20186;-80
2022/01/10 02:38:47;;;;;;;20.63;6.45;;;5.40;99.90;;;;;;5109346;28;20349;-82
2022/01/10 02:41:23;;;;;;;12.75;6.13;;;5.50;99.90;;;;;;5108603;28;20242;-79
2022/01/10 02:43:50;;;;;;;9.98;5.00;;;5.50;99.90;;;;;;5086835;28;20193;-80
2022/01/10 02:46:19;;;;;;;17.55;6.65;;;5.50;99.90;;;;;;5106524;28;20408;-84
2022/01/10 02:48:49;;;;;;;11.27;5.22;;;5.50;99.90;;;;;;5101296;28;20230;-82
2022/01/10 02:51:16;;;;;;;19.48;7.82;;;5.50;99.90;;;;;;5108630;28;20214;-79
2022/01/10 02:53:50;;;;;;;18.73;6.15;;;5.50;99.90;;;;;;5108971;28;20202;-81
2022/01/10 02:56:17;;;;;;;25.77;7.93;;;5.60;99.90;;;;;;5108437;28;20198;-80
2022/01/10 02:58:44;;;;;;;18.83;6.30;;;5.50;99.90;;;;;;5105252;28;20203;-79
2022/01/10 03:01:15;;;;;;;15.60;5.10;;;5.50;99.90;;;;;;5091485;28;20223;-80
2022/01/10 03:03:41;;;;;;;13.75;5.13;;;5.50;99.90;;;;;;5108517;28;20270;-83
2022/01/10 03:06:08;;;;;;;14.77;6.55;;;5.50;99.90;;;;;;5108781;28;20174;-82
2022/01/10 03:08:36;;;;;;;23.60;6.82;;;5.60;99.90;;;;;;5104262;28;20461;-82
2022/01/10 03:11:05;;;;;;;16.73;5.68;;;5.50;99.90;;;;;;5107227;28;20247;-82
2022/01/10 03:13:34;;;;;;;16.65;6.85;;;5.50;99.90;;;;;;5107071;28;20258;-81
2022/01/10 03:16:00;;;;;;;21.50;6.88;;;5.60;99.90;;;;;;5107866;28;20233;-80
2022/01/10 03:18:27;;;;;;;16.15;6.85;;;5.40;99.90;;;;;;5108681;28;20201;-81
2022/01/10 03:20:54;;;;;;;15.63;5.90;;;5.40;99.90;;;;;;5108188;28;20217;-86
2022/01/10 03:23:25;;;;;;;14.15;6.45;;;5.40;99.90;;;;;;5118764;28;20196;-82
2022/01/10 03:25:52;;;;;;;10.50;6.15;;;5.40;99.90;;;;;;5119859;28;20216;-83
2022/01/10 03:28:22;;;;;;;8.52;5.45;;;5.40;99.90;;;;;;5108021;28;20515;-82
2022/01/10 03:30:49;;;;;;;16.33;5.88;;;5.50;99.90;;;;;;5105669;28;20285;-82
2022/01/10 03:33:16;;;;;;;20.90;6.75;;;5.50;99.90;;;;;;5108450;28;20324;-82
2022/01/10 03:35:45;;;;;;;14.93;6.20;;;5.50;99.90;;;;;;5108288;28;20224;-81
2022/01/10 03:38:15;;;;;;;20.70;8.48;;;5.40;99.90;;;;;;5096724;28;20199;-80
2022/01/10 03:40:44;;;;;;;14.18;5.30;;;5.50;99.90;;;;;;5098295;28;20383;-80
2022/01/10 03:43:12;;;;;;;19.83;6.28;;;5.50;99.90;;;;;;5089865;28;20316;-82
2022/01/10 03:45:40;;;;;;;15.10;6.75;;;5.50;99.90;;;;;;5104432;28;20194;-83
2022/01/10 03:48:07;;;;;;;29.65;6.93;;;5.60;99.90;;;;;;5107642;28;20209;-81
2022/01/10 03:50:34;;;;;;;20.98;7.78;;;5.50;99.90;;;;;;5107337;28;20412;-82
2022/01/10 03:53:01;;;;;;;12.10;7.80;;;5.50;99.90;;;;;;5092863;28;20190;-81
2022/01/10 03:55:29;;;;;;;7.95;5.13;;;5.50;99.90;;;;;;5099181;28;20206;-82
2022/01/10 03:57:56;;;;;;;17.48;7.25;;;5.60;99.90;;;;;;5104746;28;20194;-83
2022/01/10 04:00:23;;;;;;;16.40;6.82;;;5.60;99.90;;;;;;5104456;28;20278;-78
2022/01/10 04:02:56;;;;;;;14.88;6.72;;;5.60;99.90;;;;;;5107591;28;20239;-81
2022/01/10 04:05:23;;;;;;;20.65;5.65;;;5.60;99.90;;;;;;5108223;28;20191;-83
2022/01/10 04:07:50;;;;;;;16.23;7.68;;;5.60;99.90;;;;;;5106337;28;20198;-81
2022/01/10 04:10:17;;;;;;;28.48;6.75;;;5.80;99.90;;;;;;5103865;28;20324;-81
2022/01/10 04:12:44;;;;;;;18.45;7.22;;;5.70;99.90;;;;;;5118263;28;20186;-79
2022/01/10 04:15:11;;;;;;;16.50;6.22;;;5.60;99.90;;;;;;5133093;28;20217;-80
2022/01/10 04:17:40;;;;;;;16.17;6.97;;;5.60;99.90;;;;;;5130274;28;20230;-80
2022/01/10 04:20:10;;;;;;;17.70;7.47;;;5.70;99.90;;;;;;5096035;28;20271;-82
2022/01/10 04:22:41;;;;;;;16.52;6.32;;;5.60;99.90;;;;;;5101402;28;20231;-82
2022/01/10 04:25:09;;;;;;;10.55;6.13;;;5.60;99.90;;;;;;5094414;28;20187;-79
2022/01/10 04:27:43;;;;;;;22.70;7.75;;;5.50;99.90;;;;;;5108732;28;20202;-78
2022/01/10 04:30:11;;;;;;;17.95;6.28;;;5.70;99.90;;;;;;5107746;28;20376;-81
2022/01/10 04:32:38;;;;;;;15.25;6.75;;;5.50;99.90;;;;;;5105252;28;20222;-80
2022/01/10 04:35:06;;;;;;;15.10;6.18;;;5.40;99.90;;;;;;5107518;28;20420;-81
2022/01/10 04:37:37;;;;;;;18.15;8.05;;;5.40;99.90;;;;;;5106904;28;20417;-82
2022/01/10 04:40:05;;;;;;;22.50;6.85;;;5.30;99.90;;;;;;5097303;28;20304;-80
2022/01/10 04:42:32;;;;;;;22.65;7.35;;;5.30;99.90;;;;;;5097740;28;20236;-81
2022/01/10 04:45:00;;;;;;;16.98;8.38;;;5.30;99.90;;;;;;5105273;28;20186;-81
2022/01/10 04:47:27;;;;;;;15.75;7.18;;;5.30;99.90;;;;;;5104844;28;20190;-79
2022/01/10 04:50:23;;;;;;;10.77;5.85;;;5.30;99.90;;;;;;5099086;28;20206;-81
2022/01/10 04:52:49;;;;;;;15.05;8.80;;;5.30;99.90;;;;;;5106673;28;20205;-79
2022/01/10 04:55:17;;;;;;;20.20;6.68;;;5.30;99.90;;;;;;5106529;28;20190;-79
2022/01/10 04:57:44;;;;;;;17.05;6.47;;;5.30;99.90;;;;;;5101780;28;20247;-80
2022/01/10 05:00:14;;;;;;;16.80;7.72;;;5.30;99.90;;;;;;5106703;28;20210;-83
2022/01/10 05:02:42;;;;;;;16.20;8.05;;;5.30;99.90;;;;;;5112649;28;20233;-79
2022/01/10 05:05:09;;;;;;;11.18;5.95;;;5.30;99.90;;;;;;5101390;28;20191;-81
2022/01/10 05:07:36;;;;;;;15.90;7.07;;;5.30;99.90;;;;;;5100559;28;20201;-81
2022/01/10 05:10:05;;;;;;;13.80;6.22;;;5.30;99.90;;;;;;5105993;28;20213;-82
2022/01/10 05:12:32;;;;;;;15.55;6.90;;;5.30;99.90;;;;;;5106750;28;20233;-82
2022/01/10 05:14:59;;;;;;;18.65;7.85;;;5.40;99.90;;;;;;5106620;28;20283;-82
2022/01/10 05:17:26;;;;;;;26.98;9.68;;;5.40;99.90;;;;;;5098531;28;20222;-80
2022/01/10 05:19:53;;;;;;;17.98;7.38;;;5.30;99.90;;;;;;5105541;28;20221;-82
2022/01/10 05:22:20;;;;;;;15.85;7.55;;;5.20;99.90;;;;;;5106747;28;20217;-81
2022/01/10 05:24:47;;;;;;;18.98;6.97;;;5.30;99.90;;;;;;5106329;28;20236;-79
2022/01/10 05:27:15;;;;;;;14.23;6.70;;;5.20;99.90;;;;;;5106590;28;20240;-81
2022/01/10 05:29:42;;;;;;;17.27;7.13;;;5.20;99.90;;;;;;5102605;28;20440;-79
2022/01/10 05:32:09;;;;;;;15.98;6.15;;;5.20;99.90;;;;;;5106929;28;20218;-81
2022/01/10 05:34:36;;;;;;;20.23;10.07;;;5.10;99.90;;;;;;5106846;28;20408;-79
2022/01/10 05:37:03;;;;;;;17.52;6.97;;;5.10;99.90;;;;;;5107130;28;20187;-81
2022/01/10 05:39:30;;;;;;;16.33;8.80;;;5.10;99.90;;;;;;5104681;28;20425;-79
2022/01/10 05:41:57;;;;;;;18.85;8.40;;;5.10;99.90;;;;;;5106749;28;20286;-79
2022/01/10 05:44:27;;;;;;;21.98;8.93;;;5.00;99.90;;;;;;5105908;28;20300;-79
2022/01/10 05:46:54;;;;;;;20.10;8.48;;;5.10;99.90;;;;;;5111301;28;20190;-80
2022/01/10 05:49:26;;;;;;;18.08;6.82;;;5.10;99.90;;;;;;5107414;28;20198;-81
2022/01/10 05:51:55;;;;;;;20.67;8.20;;;5.10;99.90;;;;;;5114884;28;20493;-81
2022/01/10 05:54:22;;;;;;;15.48;8.52;;;5.10;99.90;;;;;;5108455;28;20385;-82
2022/01/10 05:56:52;;;;;;;24.20;8.23;;;5.10;99.90;;;;;;5113032;28;20180;-80
2022/01/10 05:59:19;;;;;;;18.55;8.13;;;5.10;99.90;;;;;;5118830;28;20227;-79
2022/01/10 06:01:51;;;;;;;24.13;6.88;;;5.10;99.90;;;;;;5119645;28;20328;-81
2022/01/10 06:04:18;;;;;;;21.58;8.00;;;5.10;99.90;;;;;;5117824;28;20392;-81
2022/01/10 06:06:47;;;;;;;13.75;7.53;;;5.20;99.90;;;;;;5111219;28;20229;-82
2022/01/10 06:09:14;;;;;;;27.58;8.88;;;5.20;99.90;;;;;;5110373;28;20231;-79
2022/01/10 06:11:41;;;;;;;22.85;7.95;;;5.10;99.90;;;;;;5110136;28;20237;-79
2022/01/10 06:14:08;;;;;;;23.95;7.28;;;5.10;99.90;;;;;;5111214;28;20191;-80
2022/01/10 06:16:36;;;;;;;23.05;8.88;;;5.10;99.90;;;;;;5110315;28;20182;-80
2022/01/10 06:19:05;;;;;;;19.55;8.48;;;5.20;99.90;;;;;;5110280;28;20194;-81
2022/01/10 06:21:33;;;;;;;20.58;9.88;;;5.10;99.90;;;;;;5110212;28;20214;-79
2022/01/10 06:23:59;;;;;;;25.13;8.05;;;5.10;99.90;;;;;;5109610;28;20190;-81
2022/01/10 06:26:29;;;;;;;24.13;8.38;;;5.10;99.90;;;;;;5110203;28;20202;-82
2022/01/10 06:28:56;;;;;;;19.30;8.48;;;5.00;99.90;;;;;;5111183;28;20186;-82
2022/01/10 06:31:23;;;;;;;17.85;9.48;;;5.00;99.90;;;;;;5110349;28;20407;-81
2022/01/10 06:33:56;;;;;;;14.90;8.93;;;5.00;99.90;;;;;;5110470;28;20217;-80
2022/01/10 06:36:25;;;;;;;13.15;6.90;;;5.00;99.90;;;;;;5109231;28;20191;-82
2022/01/10 06:38:53;;;;;;;17.73;8.13;;;5.10;99.90;;;;;;5111046;28;20209;-83
2022/01/10 06:41:20;;;;;;;15.88;8.10;;;4.90;99.90;;;;;;5109438;28;20233;-79
2022/01/10 06:43:47;;;;;;;23.35;9.98;;;4.90;99.90;;;;;;5105585;28;20450;-75
2022/01/10 06:46:13;;;;;;;22.10;8.63;;;4.90;99.90;;;;;;5096866;28;20194;-75
2022/01/10 06:48:40;;;;;;;22.60;8.90;;;4.90;99.90;;;;;;5108470;28;20239;-78
2022/01/10 06:51:07;;;;;;;20.45;10.07;;;4.90;99.90;;;;;;5107888;28;20285;-78
2022/01/10 06:53:36;;;;;;;20.38;8.38;;;4.80;99.90;;;;;;5108684;28;20213;-75
2022/01/10 06:56:03;;;;;;;16.83;8.48;;;4.80;99.90;;;;;;5110442;28;20194;-75
2022/01/10 06:58:30;;;;;;;17.23;9.30;;;4.70;99.90;;;;;;5104451;28;20196;-76
2022/01/10 07:00:58;;;;;;;20.33;11.40;;;4.70;99.90;;;;;;5110560;28;20268;-77
2022/01/10 07:03:25;;;;;;;24.10;8.98;;;4.70;99.90;;;;;;5108186;28;20362;-75
2022/01/10 07:05:52;;;;;;;29.45;8.98;;;4.60;99.90;;;;;;5121897;28;20190;-74
2022/01/10 07:08:20;;;;;;;21.50;10.38;;;4.60;99.90;;;;;;5110874;28;20190;-75
2022/01/10 07:10:48;;;;;;;23.00;9.77;;;4.60;99.90;;;;;;5101826;28;20218;-75
2022/01/10 07:13:17;;;;;;;17.55;8.60;;;4.60;99.90;;;;;;5109716;28;20194;-76
2022/01/10 07:15:45;;;;;;;19.38;10.00;;;4.60;99.90;;;;;;5110171;28;20267;-79
2022/01/10 07:18:12;;;;;;;23.17;9.65;;;4.50;99.90;;;;;;5110066;28;20223;-81
2022/01/10 07:20:39;;;;;;;17.02;9.30;;;4.50;99.90;;;;;;5108855;28;20315;-77
2022/01/10 07:23:07;;;;;;;15.02;8.25;;;4.50;99.90;;;;;;5108434;28;20339;-80
2022/01/10 07:25:35;;;;;;;25.63;11.13;;;4.50;99.90;;;;;;5107612;28;20187;-75
2022/01/10 07:28:04;;;;;;;19.25;9.55;;;4.50;99.90;;;;;;5107345;28;20243;-76
2022/01/10 07:30:31;;;;;;;21.95;8.75;;;4.50;99.90;;;;;;5107161;28;20186;-74
2022/01/10 07:32:58;;;;;;;28.05;11.15;;;4.50;99.90;;;;;;5104884;28;20259;-73
2022/01/10 07:35:25;;;;;;;16.48;9.77;;;4.60;99.90;;;;;;5098766;28;20324;-73
2022/01/10 07:37:52;;;;;;;21.48;9.27;;;4.60;99.90;;;;;;5104227;28;20301;-73
2022/01/10 07:40:19;;;;;;;28.10;11.02;;;4.70;99.90;;;;;;5103838;28;20186;-75
2022/01/10 07:42:46;;;;;;;24.23;10.18;;;4.70;99.90;;;;;;5102959;28;20221;-76
2022/01/10 07:45:15;;;;;;;23.40;10.48;;;4.70;99.90;;;;;;5099587;28;20228;-80
2022/01/10 07:47:42;;;;;;;24.60;9.95;;;4.70;99.90;;;;;;5108254;28;20193;-76
2022/01/10 07:50:10;;;;;;;24.10;9.95;;;4.80;99.90;;;;;;5102213;28;20203;-77
2022/01/10 07:52:39;;;;;;;15.50;9.55;;;4.80;99.90;;;;;;5107932;28;20261;-80
2022/01/10 07:55:07;;;;;;;32.60;13.55;;;4.80;99.90;;;;;;5102266;28;20229;-77
2022/01/10 07:57:34;;;;;;;23.58;9.85;;;4.80;99.90;;;;;;5107583;28;20202;-75
2022/01/10 08:00:01;;;;;;;26.33;9.43;;;4.70;99.90;;;;;;5103697;28;20187;-75
2022/01/10 08:02:29;;;;;;;21.48;9.38;;;4.70;99.90;;;;;;5097801;28;20249;-78
2022/01/10 08:04:58;;;;;;;19.30;10.57;;;4.60;99.90;;;;;;5104622;28;20228;-78
2022/01/10 08:07:26;;;;;;;18.30;11.10;;;4.50;99.90;;;;;;5107098;28;20221;-78
2022/01/10 08:09:53;;;;;;;21.65;10.25;;;4.50;99.90;;;;;;5105234;28;20191;-73
2022/01/10 08:12:21;;;;;;;20.67;11.27;;;4.60;99.90;;;;;;5100414;28;20214;-75
2022/01/10 08:14:49;;;;;;;35.28;15.07;;;4.60;99.90;;;;;;5093098;28;20194;-75
2022/01/10 08:17:16;;;;;;;22.05;10.43;;;4.50;99.90;;;;;;5094980;28;20202;-72
2022/01/10 08:19:44;;;;;;;21.35;10.95;;;4.50;99.90;;;;;;5095712;28;20448;-74
2022/01/10 08:22:11;;;;;;;36.35;11.82;;;4.50;99.90;;;;;;5098716;28;20234;-77
2022/01/10 08:24:38;;;;;;;18.08;9.65;;;4.60;99.90;;;;;;5101825;28;20205;-76
2022/01/10 08:27:06;;;;;;;24.80;10.18;;;4.50;99.90;;;;;;5097472;28;20312;-76
2022/01/10 08:29:33;;;;;;;24.52;10.70;;;4.50;99.90;;;;;;5099044;28;20257;-76
2022/01/10 08:32:00;;;;;;;22.67;12.23;;;4.50;99.90;;;;;;5098953;28;20220;-75
2022/01/10 08:34:27;;;;;;;26.15;10.88;;;4.60;99.90;;;;;;5099617;28;20391;-75
2022/01/10 08:36:57;;;;;;;30.77;11.57;;;4.80;99.90;;;;;;5098512;28;20286;-76
2022/01/10 08:39:24;;;;;;;26.95;10.88;;;5.10;99.90;;;;;;5093992;28;20187;-75
2022/01/10 08:41:51;;;;;;;27.83;9.35;;;5.50;99.90;;;;;;5092505;28;20226;-79
2022/01/10 08:44:19;;;;;;;18.67;9.52;;;5.70;99.90;;;;;;5092594;28;20222;-75
2022/01/10 08:46:45;;;;;;;17.83;9.55;;;5.70;99.90;;;;;;5091956;28;20195;-75
2022/01/10 08:49:13;;;;;;;24.67;9.27;;;5.90;99.90;;;;;;5092067;28;20279;-80
2022/01/10 08:51:43;;;;;;;24.75;10.95;;;6.10;99.90;;;;;;5091885;28;20231;-78
2022/01/10 08:54:11;;;;;;;19.55;9.02;;;6.50;99.90;;;;;;5094380;28;20317;-81
2022/01/10 08:56:38;;;;;;;15.85;10.18;;;6.80;99.90;;;;;;5095055;28;20542;-81
2022/01/10 08:59:06;;;;;;;17.63;9.55;;;7.30;99.90;;;;;;5095588;28;20408;-78
2022/01/10 09:01:34;;;;;;;25.48;10.10;;;7.70;99.90;;;;;;5095260;28;20305;-79
2022/01/10 09:04:01;;;;;;;14.60;8.18;;;8.20;99.90;;;;;;5093641;28;20477;-77
2022/01/10 09:06:28;;;;;;;18.92;7.85;;;8.80;99.90;;;;;;5093487;28;20190;-79
2022/01/10 09:08:55;;;;;;;18.23;9.48;;;9.10;99.90;;;;;;5092400;28;20233;-79
2022/01/10 09:11:24;;;;;;;20.27;9.73;;;9.50;99.90;;;;;;5094096;28;20275;-79
2022/01/10 09:13:51;;;;;;;17.75;8.90;;;9.70;99.90;;;;;;5093336;28;20285;-76
2022/01/10 09:16:25;;;;;;;18.40;9.85;;;9.10;99.90;;;;;;5091633;28;20321;-76
2022/01/10 09:18:52;;;;;;;24.48;9.65;;;8.70;99.90;;;;;;5096104;28;20213;-81
2022/01/10 09:21:20;;;;;;;13.82;10.20;;;8.00;99.90;;;;;;5093853;28;20336;-77
2022/01/10 09:23:47;;;;;;;18.80;10.00;;;7.50;99.90;;;;;;5093864;28;20272;-82
2022/01/10 09:26:14;;;;;;;28.92;12.07;;;6.90;99.90;;;;;;5093470;28;20368;-82
2022/01/10 09:28:43;;;;;;;24.02;12.52;;;6.80;99.90;;;;;;5095813;28;20355;-78
2022/01/10 09:31:10;;;;;;;28.55;11.13;;;6.60;99.90;;;;;;5098118;28;20317;-76
2022/01/10 09:33:38;;;;;;;23.17;11.20;;;6.50;99.90;;;;;;5103408;28;20470;-75
2022/01/10 09:36:05;;;;;;;17.20;9.30;;;6.50;99.90;;;;;;5103947;28;20233;-75
2022/01/10 09:38:33;;;;;;;23.48;10.88;;;6.80;99.90;;;;;;5119147;28;20186;-76
2022/01/10 09:41:00;;;;;;;16.45;10.23;;;6.90;99.90;;;;;;5107207;28;20454;-75
2022/01/10 09:43:27;;;;;;;21.85;9.32;;;7.60;99.90;;;;;;5104312;28;20248;-74
2022/01/10 09:45:56;;;;;;;15.45;9.20;;;8.50;99.90;;;;;;5104509;28;20190;-75
2022/01/10 09:48:24;;;;;;;19.48;9.50;;;9.40;99.90;;;;;;5099257;28;20182;-77
2022/01/10 09:50:51;;;;;;;19.42;9.85;;;10.10;99.90;;;;;;5107607;28;20214;-76
2022/01/10 09:53:27;;;;;;;24.48;11.00;;;10.60;99.90;;;;;;5112110;28;20208;-76
2022/01/10 09:55:58;;;;;;;18.08;8.35;;;10.90;99.90;;;;;;5107944;28;20344;-77
2022/01/10 09:58:27;;;;;;;14.07;7.78;;;11.10;99.90;;;;;;5110799;28;20219;-77
2022/01/10 10:00:58;;;;;;;21.45;7.60;;;10.90;99.90;;;;;;5111164;28;20215;-77
2022/01/10 10:03:26;;;;;;;17.33;8.60;;;10.60;99.90;;;;;;5109372;28;20498;-75
2022/01/10 10:05:54;;;;;;;21.90;9.05;;;10.40;99.90;;;;;;5110745;28;20190;-74
2022/01/10 10:08:23;;;;;;;20.52;11.60;;;9.70;99.90;;;;;;5111002;28;20220;-76
2022/01/10 10:10:50;;;;;;;21.23;9.38;;;9.10;99.90;;;;;;5095399;28;20218;-76
2022/01/10 10:13:19;;;;;;;38.17;10.95;;;8.70;99.90;;;;;;5111208;28;20300;-76
2022/01/10 10:15:47;;;;;;;16.55;10.18;;;8.30;99.90;;;;;;5110087;27;20393;-76
2022/01/10 10:18:20;;;;;;;27.65;9.85;;;8.10;99.90;;;;;;5104431;28;20185;-76
2022/01/10 10:20:47;;;;;;;22.77;10.70;;;7.70;99.90;;;;;;5106072;28;20325;-74
2022/01/10 10:23:17;;;;;;;17.70;10.38;;;7.60;99.90;;;;;;5086022;28;20206;-75
2022/01/10 10:25:49;;;;;;;27.10;8.73;;;7.60;99.90;;;;;;5097080;28;20214;-75
2022/01/10 10:28:16;;;;;;;16.50;10.27;;;7.60;99.90;;;;;;5108656;28;20182;-74
2022/01/10 10:30:45;;;;;;;20.48;10.07;;;7.90;99.90;;;;;;5099365;28;20254;-75
2022/01/10 10:33:14;;;;;;;18.52;9.77;;;8.10;99.90;;;;;;5108719;28;20186;-75
2022/01/10 10:35:43;;;;;;;21.50;9.55;;;8.50;99.90;;;;;;5106502;28;20183;-76
2022/01/10 10:38:10;;;;;;;18.38;9.45;;;9.10;99.90;;;;;;5103367;28;20398;-75
2022/01/10 10:40:43;;;;;;;28.10;12.45;;;9.50;99.90;;;;;;5105364;28;20221;-75
2022/01/10 10:43:10;;;;;;;20.02;9.65;;;9.90;99.90;;;;;;5102932;28;20214;-75
2022/01/10 10:45:38;;;;;;;18.23;11.30;;;10.20;99.90;;;;;;5100917;28;20201;-75
2022/01/10 10:48:08;;;;;;;15.93;8.27;;;10.30;99.90;;;;;;5108317;28;20406;-76
2022/01/10 10:50:41;;;;;;;21.85;9.43;;;10.30;99.90;;;;;;5107940;28;20221;-75
2022/01/10 10:53:13;;;;;;;22.52;10.77;;;10.10;99.90;;;;;;5108616;28;20399;-75
2022/01/10 10:55:40;;;;;;;21.88;10.70;;;10.00;99.90;;;;;;5109086;28;20201;-75
2022/01/10 10:58:09;;;;;;;25.20;11.80;;;10.00;99.90;;;;;;5109416;28;20321;-76
2022/01/10 11:00:38;;;;;;;22.02;8.93;;;10.00;99.90;;;;;;5108622;28;20174;-76
2022/01/10 11:03:12;;;;;;;13.90;8.95;;;9.80;99.90;;;;;;5109050;28;20322;-76
2022/01/10 11:05:40;;;;;;;20.90;10.07;;;9.50;99.90;;;;;;5108657;28;20190;-76
2022/01/10 11:08:11;;;;;;;22.70;10.77;;;9.10;99.90;;;;;;5108579;28;20197;-75
2022/01/10 11:10:39;;;;;;;16.88;9.60;;;9.00;99.90;;;;;;5107874;28;20260;-75
2022/01/10 11:13:07;;;;;;;24.92;11.23;;;8.80;99.90;;;;;;5108302;28;20359;-74
2022/01/10 11:15:38;;;;;;;19.70;10.43;;;8.60;99.90;;;;;;5108269;28;20228;-75
2022/01/10 11:18:08;;;;;;;20.90;9.73;;;8.20;99.90;;;;;;5107775;28;20264;-75
2022/01/10 11:20:42;;;;;;;21.55;10.30;;;8.00;99.90;;;;;;5101857;28;20283;-76
2022/01/10 11:23:15;;;;;;;24.63;10.13;;;7.90;99.90;;;;;;5107399;28;20408;-75
2022/01/10 11:25:42;;;;;;;19.33;9.48;;;8.00;99.90;;;;;;5104784;28;20206;-74
2022/01/10 11:28:11;;;;;;;15.20;9.52;;;8.00;99.90;;;;;;5110430;28;20205;-74
2022/01/10 11:30:44;;;;;;;24.70;10.13;;;8.10;99.90;;;;;;5101616;28;20285;-75
2022/01/10 11:33:14;;;;;;;17.63;7.93;;;8.30;99.90;;;;;;5106861;28;20211;-74
2022/01/10 11:35:44;;;;;;;21.30;10.48;;;8.50;99.90;;;;;;5109457;28;20254;-75
2022/01/10 11:38:23;;;;;;;27.02;11.85;;;8.60;99.90;;;;;;5098495;28;20202;-75
2022/01/10 11:40:53;;;;;;;19.88;8.93;;;8.60;99.90;;;;;;5101588;28;20213;-74
2022/01/10 11:43:43;;;;;;;24.80;11.40;;;8.60;99.90;;;;;;5104869;28;20274;-75
2022/01/10 11:46:18;;;;;;;23.13;9.95;;;8.60;99.90;;;;;;5100672;28;20262;-74
2022/01/10 11:48:49;;;;;;;19.48;9.85;;;8.30;99.90;;;;;;5084937;28;20233;-74
2022/01/10 11:51:21;;;;;;;18.75;11.30;;;8.10;99.90;;;;;;5102329;28;20452;-74
2022/01/10 11:53:52;;;;;;;22.58;11.65;;;8.20;99.90;;;;;;5107220;28;20190;-74
2022/01/10 11:56:26;;;;;;;23.27;11.00;;;8.40;99.90;;;;;;5106713;28;20459;-74
2022/01/10 11:59:16;;;;;;;18.63;11.70;;;8.60;99.90;;;;;;5105459;28;20318;-75
2022/01/10 12:01:45;;;;;;;28.30;12.15;;;8.60;99.90;;;;;;5101560;28;20318;-75
2022/01/10 12:04:13;;;;;;;19.77;11.32;;;8.40;99.90;;;;;;5104303;28;20218;-75
2022/01/10 12:06:40;;;;;;;23.65;12.23;;;8.40;99.90;;;;;;5103327;28;20307;-74
2022/01/10 12:09:11;;;;;;;22.48;12.68;;;8.60;99.90;;;;;;5104705;28;20210;-76
2022/01/10 12:11:40;;;;;;;25.73;11.45;;;8.60;99.90;;;;;;5103999;28;20221;-74
2022/01/10 12:14:09;;;;;;;22.52;12.77;;;8.60;99.90;;;;;;5098578;28;20182;-75
2022/01/10 12:16:38;;;;;;;19.52;11.27;;;8.60;99.90;;;;;;5092886;28;20236;-75
2022/01/10 12:19:06;;;;;;;23.02;10.77;;;8.60;99.90;;;;;;5105452;28;20198;-74
2022/01/10 12:21:33;;;;;;;23.02;12.25;;;8.70;99.90;;;;;;5098771;28;20226;-74
2022/01/10 12:24:01;;;;;;;27.63;12.82;;;8.70;99.90;;;;;;5102039;28;20248;-74
2022/01/10 12:26:30;;;;;;;25.33;11.98;;;8.80;99.90;;;;;;5104039;28;20230;-76
2022/01/10 12:28:59;;;;;;;33.58;15.38;;;8.80;99.90;;;;;;5105122;28;20182;-74
2022/01/10 12:31:28;;;;;;;34.88;14.52;;;8.80;99.90;;;;;;5104634;28;20217;-75
2022/01/10 12:33:56;;;;;;;22.77;11.02;;;8.90;99.90;;;;;;5101771;28;20182;-76
2022/01/10 12:36:25;;;;;;;30.33;12.63;;;8.90;99.90;;;;;;5103235;28;20392;-78
2022/01/10 12:38:53;;;;;;;24.13;11.00;;;8.90;99.90;;;;;;5094301;28;20343;-76
2022/01/10 12:41:20;;;;;;;15.60;9.80;;;8.90;99.90;;;;;;5100348;28;20218;-76
2022/01/10 12:43:50;;;;;;;21.95;10.23;;;8.90;99.90;;;;;;5093759;28;20292;-76
2022/01/10 12:46:18;;;;;;;26.42;12.02;;;8.80;99.90;;;;;;5091733;28;20529;-78
2022/01/10 12:48:47;;;;;;;23.80;10.30;;;8.80;99.90;;;;;;5095224;28;20312;-77
2022/01/10 12:51:14;;;;;;;20.60;11.10;;;8.70;99.90;;;;;;5091899;28;20210;-76
2022/01/10 12:53:53;;;;;;;25.75;11.73;;;8.80;99.90;;;;;;5091619;28;20672;-78
2022/01/10 12:56:22;;;;;;;23.27;10.48;;;8.90;99.90;;;;;;5092342;28;20227;-78